MiSS Stacie — WDF5915 — position and weather

sailwx.info

Track history (hours):
 
Tides and Currents Weather Stations Pressure Air Temp Water Temp Dewpoint Dewpoint Depression Visibility Wind Speed Wind Dir Waves Ship Positions

MiSS Stacie

Owner: Crosby Marine Transportation LLC, Golden Meadow, LA. More information available from US FCC via Universal Licensing System and Coast Guard Vessel Documentation Center.

Last reported at 2016-Sep-23 19:33 UTC. Time now 2016-Sep-26 00:20 UTC.
Position N 29°36' W 090°40'.

Length 20 m; draft 2 m.

Type: Tug. MMSI: 367468640.

Date/timePositionNaut miles runAvg speedWind from/ knotsBaromVisibWave heightAir tempDewpointWater temp
2016-Sep-23 19:33N 29°36' W 090°40'0 0.1
2016-Sep-23 17:33N 29°36' W 090°40'3 3.1
2016-Sep-23 16:33N 29°35' W 090°43'1 1.2
2016-Sep-23 15:33N 29°34' W 090°43'1 0.6
2016-Sep-23 13:33N 29°34' W 090°42'1 0.2
2016-Sep-23 09:33N 29°33' W 090°42'0 0.0
2016-Sep-23 06:33N 29°33' W 090°42'0 0.0
2016-Sep-23 04:33N 29°33' W 090°42'0 0.0
2016-Sep-23 03:33N 29°33' W 090°42'4 4.1
2016-Sep-23 02:33N 29°37' W 090°42'2 1.8
2016-Sep-23 01:33N 29°36' W 090°40'0 0.1
2016-Sep-23 00:33N 29°36' W 090°40'0 0.0
2016-Sep-22 23:33N 29°36' W 090°40'0 0.0
2016-Sep-22 20:33N 29°36' W 090°40'0 0.0
2016-Sep-22 12:33N 29°36' W 090°40'0 0.0
2016-Sep-22 04:33N 29°36' W 090°40'0 0.0
2016-Sep-22 03:33N 29°36' W 090°40'0 0.0
2016-Sep-22 00:33N 29°36' W 090°40'0 0.0
2016-Sep-21 23:33N 29°36' W 090°40'0 0.0
2016-Sep-21 22:33N 29°36' W 090°40'0 0.0
2016-Sep-21 19:33N 29°36' W 090°40'0 0.0
2016-Sep-21 16:33N 29°36' W 090°40'0 0.0
2016-Sep-21 09:33N 29°36' W 090°40'0 0.0
2016-Sep-21 08:33N 29°36' W 090°40'0 0.0
2016-Sep-21 05:33N 29°36' W 090°40'0 0.0
2016-Sep-21 03:33N 29°36' W 090°40'0 0.0
2016-Sep-21 02:33N 29°36' W 090°40'0 0.0
2016-Sep-20 17:33N 29°36' W 090°40'0 0.0
2016-Sep-20 14:33N 29°36' W 090°40'0 0.0
2016-Sep-20 13:33N 29°36' W 090°40'0 0.0
2016-Sep-20 10:33N 29°36' W 090°40'0 0.0
2016-Sep-20 08:33N 29°36' W 090°40'0 0.0
2016-Sep-20 07:33N 29°36' W 090°40'0 0.0
2016-Sep-20 06:33N 29°36' W 090°40'0 0.0
2016-Sep-20 02:33N 29°36' W 090°40'0 0.0
2016-Sep-19 23:33N 29°36' W 090°40'0 0.0
2016-Sep-19 19:33N 29°36' W 090°40'0 0.0
2016-Sep-19 18:33N 29°36' W 090°40'  
2016-Sep-17 13:33N 29°33' W 090°45'7 6.8
2016-Sep-17 12:31N 29°33' W 090°53'70 5.8
2016-Sep-17 00:33N 29°47' W 092°12'47 6.8
2016-Sep-16 17:32N 29°56' W 093°05'13 6.3
2016-Sep-16 15:33N 30°04' W 093°16'14 4.7
2016-Sep-16 12:33N 30°04' W 093°33'  
Track history (hours):
 
Tides and Currents Weather Stations Pressure Air Temp Water Temp Dewpoint Dewpoint Depression Visibility Wind Speed Wind Dir Waves Ship Positions

MiSS Stacie

Owner: Crosby Marine Transportation LLC, Golden Meadow, LA. More information available from US FCC via Universal Licensing System and Coast Guard Vessel Documentation Center.

Last reported at 2016-Sep-23 19:33 UTC. Time now 2016-Sep-26 00:20 UTC.
Position N 29°36' W 090°40'.

Length 20 m; draft 2 m.

Type: Tug. MMSI: 367468640.

Date/timePositionNaut miles runAvg speedWind from/ knotsBaromVisibWave heightAir tempDewpointWater temp
2016-Sep-23 19:33N 29°36' W 090°40'0 0.1
2016-Sep-23 17:33N 29°36' W 090°40'3 3.1
2016-Sep-23 16:33N 29°35' W 090°43'1 1.2
2016-Sep-23 15:33N 29°34' W 090°43'1 0.6
2016-Sep-23 13:33N 29°34' W 090°42'1 0.2
2016-Sep-23 09:33N 29°33' W 090°42'0 0.0
2016-Sep-23 06:33N 29°33' W 090°42'0 0.0
2016-Sep-23 04:33N 29°33' W 090°42'0 0.0
2016-Sep-23 03:33N 29°33' W 090°42'4 4.1
2016-Sep-23 02:33N 29°37' W 090°42'2 1.8
2016-Sep-23 01:33N 29°36' W 090°40'0 0.1
2016-Sep-23 00:33N 29°36' W 090°40'0 0.0
2016-Sep-22 23:33N 29°36' W 090°40'0 0.0
2016-Sep-22 20:33N 29°36' W 090°40'0 0.0
2016-Sep-22 12:33N 29°36' W 090°40'0 0.0
2016-Sep-22 04:33N 29°36' W 090°40'0 0.0
2016-Sep-22 03:33N 29°36' W 090°40'0 0.0
2016-Sep-22 00:33N 29°36' W 090°40'0 0.0
2016-Sep-21 23:33N 29°36' W 090°40'0 0.0
2016-Sep-21 22:33N 29°36' W 090°40'0 0.0
2016-Sep-21 19:33N 29°36' W 090°40'0 0.0
2016-Sep-21 16:33N 29°36' W 090°40'0 0.0
2016-Sep-21 09:33N 29°36' W 090°40'0 0.0
2016-Sep-21 08:33N 29°36' W 090°40'0 0.0
2016-Sep-21 05:33N 29°36' W 090°40'0 0.0
2016-Sep-21 03:33N 29°36' W 090°40'0 0.0
2016-Sep-21 02:33N 29°36' W 090°40'0 0.0
2016-Sep-20 17:33N 29°36' W 090°40'0 0.0
2016-Sep-20 14:33N 29°36' W 090°40'0 0.0
2016-Sep-20 13:33N 29°36' W 090°40'0 0.0
2016-Sep-20 10:33N 29°36' W 090°40'0 0.0
2016-Sep-20 08:33N 29°36' W 090°40'0 0.0
2016-Sep-20 07:33N 29°36' W 090°40'0 0.0
2016-Sep-20 06:33N 29°36' W 090°40'0 0.0
2016-Sep-20 02:33N 29°36' W 090°40'0 0.0
2016-Sep-19 23:33N 29°36' W 090°40'0 0.0
2016-Sep-19 19:33N 29°36' W 090°40'0 0.0
2016-Sep-19 18:33N 29°36' W 090°40'  
2016-Sep-17 13:33N 29°33' W 090°45'7 6.8
2016-Sep-17 12:31N 29°33' W 090°53'70 5.8
2016-Sep-17 00:33N 29°47' W 092°12'47 6.8
2016-Sep-16 17:32N 29°56' W 093°05'13 6.3
2016-Sep-16 15:33N 30°04' W 093°16'14 4.7
2016-Sep-16 12:33N 30°04' W 093°33'  

Dump ship's entire track history